sensor_id;sensor_type;location;lat;lon;timestamp;noise_LAeq;noise_LA_min;noise_LA_max;noise_LA01;noise_LA95
36217;Laerm;22259;48.792;8.964;2023-05-08T00:01:18;39.09;36.63;43.29;;
36217;Laerm;22259;48.792;8.964;2023-05-08T00:03:43;39.25;35.51;44.78;;
36217;Laerm;22259;48.792;8.964;2023-05-08T00:06:08;39.52;36.57;43.19;;
36217;Laerm;22259;48.792;8.964;2023-05-08T00:08:34;39.65;37.27;43.27;;
36217;Laerm;22259;48.792;8.964;2023-05-08T00:11:00;39.96;37.27;44.24;;
36217;Laerm;22259;48.792;8.964;2023-05-08T00:13:25;39.74;36.85;44.01;;
36217;Laerm;22259;48.792;8.964;2023-05-08T00:15:50;39.76;37.02;45.77;;
36217;Laerm;22259;48.792;8.964;2023-05-08T00:18:16;39.69;37.17;44.37;;
36217;Laerm;22259;48.792;8.964;2023-05-08T00:20:41;39.71;37.17;48.21;;
36217;Laerm;22259;48.792;8.964;2023-05-08T00:23:07;39.96;37.07;47.47;;
36217;Laerm;22259;48.792;8.964;2023-05-08T00:25:32;40.09;37.37;43.74;;
36217;Laerm;22259;48.792;8.964;2023-05-08T00:27:58;40.08;37.32;44.04;;
36217;Laerm;22259;48.792;8.964;2023-05-08T00:30:23;40.16;37.07;45.88;;
36217;Laerm;22259;48.792;8.964;2023-05-08T00:32:49;39.86;37.07;47.62;;
36217;Laerm;22259;48.792;8.964;2023-05-08T00:35:14;39.79;37.37;48.01;;
36217;Laerm;22259;48.792;8.964;2023-05-08T00:37:40;39.59;36.91;43.36;;
36217;Laerm;22259;48.792;8.964;2023-05-08T00:40:07;39.63;36.51;42.26;;
36217;Laerm;22259;48.792;8.964;2023-05-08T00:42:32;39.64;36.69;43.63;;
36217;Laerm;22259;48.792;8.964;2023-05-08T00:44:58;39.94;36.80;44.95;;
36217;Laerm;22259;48.792;8.964;2023-05-08T00:47:23;39.30;36.01;42.92;;
36217;Laerm;22259;48.792;8.964;2023-05-08T00:49:48;39.28;36.45;43.22;;
36217;Laerm;22259;48.792;8.964;2023-05-08T00:52:14;39.32;36.51;43.49;;
36217;Laerm;22259;48.792;8.964;2023-05-08T00:54:40;40.27;36.74;47.81;;
36217;Laerm;22259;48.792;8.964;2023-05-08T00:57:06;40.87;36.96;47.42;;
36217;Laerm;22259;48.792;8.964;2023-05-08T00:59:31;39.51;36.96;47.36;;
36217;Laerm;22259;48.792;8.964;2023-05-08T01:01:58;39.24;36.63;44.38;;
36217;Laerm;22259;48.792;8.964;2023-05-08T01:04:24;39.60;37.37;47.26;;
36217;Laerm;22259;48.792;8.964;2023-05-08T01:06:50;39.75;37.32;47.74;;
36217;Laerm;22259;48.792;8.964;2023-05-08T01:09:16;39.71;37.02;49.00;;
36217;Laerm;22259;48.792;8.964;2023-05-08T01:21:21;40.35;37.37;48.53;;
36217;Laerm;22259;48.792;8.964;2023-05-08T01:25:31;40.03;37.27;45.35;;
36217;Laerm;22259;48.792;8.964;2023-05-08T01:29:09;40.11;37.07;45.49;;
36217;Laerm;22259;48.792;8.964;2023-05-08T01:34:25;40.48;37.75;45.86;;
36217;Laerm;22259;48.792;8.964;2023-05-08T01:36:52;40.66;38.10;57.00;;
36217;Laerm;22259;48.792;8.964;2023-05-08T01:39:28;40.06;37.52;45.49;;
36217;Laerm;22259;48.792;8.964;2023-05-08T01:42:01;39.83;37.12;47.51;;
36217;Laerm;22259;48.792;8.964;2023-05-08T01:44:32;40.13;37.32;43.10;;
36217;Laerm;22259;48.792;8.964;2023-05-08T01:46:58;53.01;37.22;69.27;;
36217;Laerm;22259;48.792;8.964;2023-05-08T01:49:30;40.01;37.22;50.49;;
36217;Laerm;22259;48.792;8.964;2023-05-08T01:52:02;40.44;37.61;43.96;;
36217;Laerm;22259;48.792;8.964;2023-05-08T01:54:32;40.65;37.52;47.45;;
36217;Laerm;22259;48.792;8.964;2023-05-08T01:57:00;40.08;37.56;46.83;;
36217;Laerm;22259;48.792;8.964;2023-05-08T01:59:26;40.29;37.12;50.82;;
36217;Laerm;22259;48.792;8.964;2023-05-08T02:01:54;50.43;38.17;70.29;;
36217;Laerm;22259;48.792;8.964;2023-05-08T02:04:21;40.49;37.92;45.48;;
36217;Laerm;22259;48.792;8.964;2023-05-08T02:06:47;40.48;37.96;44.33;;
36217;Laerm;22259;48.792;8.964;2023-05-08T02:09:15;40.38;38.05;43.14;;
36217;Laerm;22259;48.792;8.964;2023-05-08T02:11:41;40.56;37.70;44.36;;
36217;Laerm;22259;48.792;8.964;2023-05-08T02:14:08;40.86;38.25;43.74;;
36217;Laerm;22259;48.792;8.964;2023-05-08T02:16:34;40.70;37.88;46.15;;
36217;Laerm;22259;48.792;8.964;2023-05-08T02:19:00;40.86;38.57;45.60;;
36217;Laerm;22259;48.792;8.964;2023-05-08T02:21:27;40.55;37.66;44.59;;
36217;Laerm;22259;48.792;8.964;2023-05-08T02:23:53;40.97;38.29;43.72;;
36217;Laerm;22259;48.792;8.964;2023-05-08T02:26:20;40.90;38.41;47.10;;
36217;Laerm;22259;48.792;8.964;2023-05-08T02:28:48;40.54;37.75;48.07;;
36217;Laerm;22259;48.792;8.964;2023-05-08T02:31:14;40.68;38.41;49.26;;
36217;Laerm;22259;48.792;8.964;2023-05-08T02:33:41;40.40;37.75;49.58;;
36217;Laerm;22259;48.792;8.964;2023-05-08T02:36:06;41.56;38.56;46.17;;
36217;Laerm;22259;48.792;8.964;2023-05-08T02:38:32;41.26;38.63;48.45;;
36217;Laerm;22259;48.792;8.964;2023-05-08T02:40:59;41.28;38.88;48.70;;
36217;Laerm;22259;48.792;8.964;2023-05-08T02:43:26;41.24;38.81;43.95;;
36217;Laerm;22259;48.792;8.964;2023-05-08T02:46:26;52.12;39.18;68.12;;
36217;Laerm;22259;48.792;8.964;2023-05-08T02:48:55;41.37;38.67;44.23;;
36217;Laerm;22259;48.792;8.964;2023-05-08T02:51:36;40.66;37.92;46.85;;
36217;Laerm;22259;48.792;8.964;2023-05-08T02:54:05;40.93;38.02;47.45;;
36217;Laerm;22259;48.792;8.964;2023-05-08T02:56:35;41.38;38.81;44.25;;
36217;Laerm;22259;48.792;8.964;2023-05-08T02:59:21;41.56;38.78;46.53;;
36217;Laerm;22259;48.792;8.964;2023-05-08T03:01:53;41.31;38.13;45.30;;
36217;Laerm;22259;48.792;8.964;2023-05-08T03:04:30;41.22;38.88;46.61;;
36217;Laerm;22259;48.792;8.964;2023-05-08T03:06:56;43.43;38.85;52.24;;
36217;Laerm;22259;48.792;8.964;2023-05-08T03:09:22;42.45;38.92;54.32;;
36217;Laerm;22259;48.792;8.964;2023-05-08T03:11:56;42.72;39.37;52.51;;
36217;Laerm;22259;48.792;8.964;2023-05-08T03:14:23;47.15;39.57;65.53;;
36217;Laerm;22259;48.792;8.964;2023-05-08T03:16:51;53.83;39.87;70.76;;
36217;Laerm;22259;48.792;8.964;2023-05-08T03:19:53;50.74;40.62;65.22;;
36217;Laerm;22259;48.792;8.964;2023-05-08T03:22:21;49.58;40.43;64.35;;
36217;Laerm;22259;48.792;8.964;2023-05-08T03:24:48;51.33;41.22;65.75;;
36217;Laerm;22259;48.792;8.964;2023-05-08T03:27:14;55.14;40.93;65.83;;
36217;Laerm;22259;48.792;8.964;2023-05-08T03:29:40;55.37;41.00;67.45;;
36217;Laerm;22259;48.792;8.964;2023-05-08T03:32:06;57.74;41.48;69.88;;
36217;Laerm;22259;48.792;8.964;2023-05-08T03:34:32;53.77;40.39;65.21;;
36217;Laerm;22259;48.792;8.964;2023-05-08T03:36:58;55.39;40.60;67.63;;
36217;Laerm;22259;48.792;8.964;2023-05-08T03:39:23;55.11;40.16;74.87;;
36217;Laerm;22259;48.792;8.964;2023-05-08T03:41:49;49.45;40.69;62.22;;
36217;Laerm;22259;48.792;8.964;2023-05-08T03:44:16;49.21;39.87;64.38;;
36217;Laerm;22259;48.792;8.964;2023-05-08T03:46:41;54.91;40.23;68.54;;
36217;Laerm;22259;48.792;8.964;2023-05-08T03:49:08;45.95;38.41;62.28;;
36217;Laerm;22259;48.792;8.964;2023-05-08T03:51:37;47.70;39.25;61.53;;
36217;Laerm;22259;48.792;8.964;2023-05-08T03:54:04;48.14;39.29;59.20;;
36217;Laerm;22259;48.792;8.964;2023-05-08T03:56:29;46.01;38.98;59.59;;
36217;Laerm;22259;48.792;8.964;2023-05-08T03:59:16;43.23;39.49;57.79;;
36217;Laerm;22259;48.792;8.964;2023-05-08T04:01:58;53.61;39.84;68.28;;
36217;Laerm;22259;48.792;8.964;2023-05-08T04:04:39;43.26;39.28;56.35;;
36217;Laerm;22259;48.792;8.964;2023-05-08T04:07:20;48.22;39.64;64.83;;
36217;Laerm;22259;48.792;8.964;2023-05-08T04:09:57;42.96;39.28;58.24;;
36217;Laerm;22259;48.792;8.964;2023-05-08T04:12:47;42.14;39.05;51.46;;
36217;Laerm;22259;48.792;8.964;2023-05-08T04:15:21;52.82;40.05;69.01;;
36217;Laerm;22259;48.792;8.964;2023-05-08T04:17:58;48.91;39.89;64.86;;
36217;Laerm;22259;48.792;8.964;2023-05-08T04:20:25;46.90;39.55;68.81;;
36217;Laerm;22259;48.792;8.964;2023-05-08T04:22:52;45.60;39.34;68.52;;
36217;Laerm;22259;48.792;8.964;2023-05-08T04:25:17;42.59;39.73;52.05;;
36217;Laerm;22259;48.792;8.964;2023-05-08T04:27:44;42.93;39.64;51.46;;
36217;Laerm;22259;48.792;8.964;2023-05-08T04:30:10;52.72;40.03;70.19;;
36217;Laerm;22259;48.792;8.964;2023-05-08T04:32:36;50.47;39.91;69.51;;
36217;Laerm;22259;48.792;8.964;2023-05-08T04:35:02;43.41;39.73;51.09;;
36217;Laerm;22259;48.792;8.964;2023-05-08T04:37:27;49.65;39.87;67.45;;
36217;Laerm;22259;48.792;8.964;2023-05-08T04:39:53;42.08;39.78;50.80;;
36217;Laerm;22259;48.792;8.964;2023-05-08T04:42:19;47.07;39.63;63.08;;
36217;Laerm;22259;48.792;8.964;2023-05-08T04:44:45;53.74;40.18;67.60;;
36217;Laerm;22259;48.792;8.964;2023-05-08T04:47:12;51.22;39.87;66.68;;
36217;Laerm;22259;48.792;8.964;2023-05-08T04:49:37;42.39;39.31;50.40;;
36217;Laerm;22259;48.792;8.964;2023-05-08T04:52:02;46.84;39.81;68.57;;
36217;Laerm;22259;48.792;8.964;2023-05-08T04:54:28;43.67;38.74;55.66;;
36217;Laerm;22259;48.792;8.964;2023-05-08T04:56:53;47.77;39.70;65.64;;
36217;Laerm;22259;48.792;8.964;2023-05-08T04:59:19;42.00;39.73;48.64;;
36217;Laerm;22259;48.792;8.964;2023-05-08T05:01:45;53.56;39.02;71.21;;
36217;Laerm;22259;48.792;8.964;2023-05-08T05:04:11;50.61;39.49;68.58;;
36217;Laerm;22259;48.792;8.964;2023-05-08T05:06:36;49.27;39.60;68.14;;
36217;Laerm;22259;48.792;8.964;2023-05-08T05:09:01;42.99;39.37;58.87;;
36217;Laerm;22259;48.792;8.964;2023-05-08T05:11:27;47.46;40.03;61.11;;
36217;Laerm;22259;48.792;8.964;2023-05-08T05:13:53;44.39;39.75;66.87;;
36217;Laerm;22259;48.792;8.964;2023-05-08T05:16:18;53.63;39.58;68.60;;
36217;Laerm;22259;48.792;8.964;2023-05-08T05:18:43;50.52;38.95;67.39;;
36217;Laerm;22259;48.792;8.964;2023-05-08T05:21:09;55.92;40.06;72.38;;
36217;Laerm;22259;48.792;8.964;2023-05-08T05:23:35;57.38;40.36;68.86;;
36217;Laerm;22259;48.792;8.964;2023-05-08T05:26:01;43.56;39.75;55.05;;
36217;Laerm;22259;48.792;8.964;2023-05-08T05:28:26;42.56;39.95;51.13;;
36217;Laerm;22259;48.792;8.964;2023-05-08T05:30:51;54.16;40.00;71.08;;
36217;Laerm;22259;48.792;8.964;2023-05-08T05:33:17;51.73;40.41;69.54;;
36217;Laerm;22259;48.792;8.964;2023-05-08T05:35:42;44.85;40.18;56.20;;
36217;Laerm;22259;48.792;8.964;2023-05-08T05:38:08;57.24;40.67;72.99;;
36217;Laerm;22259;48.792;8.964;2023-05-08T05:40:33;49.38;40.64;66.10;;
36217;Laerm;22259;48.792;8.964;2023-05-08T05:42:59;43.87;40.43;57.60;;
36217;Laerm;22259;48.792;8.964;2023-05-08T05:45:25;54.05;40.18;70.16;;
36217;Laerm;22259;48.792;8.964;2023-05-08T05:47:50;50.09;40.38;64.49;;
36217;Laerm;22259;48.792;8.964;2023-05-08T05:50:18;43.59;40.03;52.73;;
36217;Laerm;22259;48.792;8.964;2023-05-08T05:52:44;42.91;40.08;53.41;;
36217;Laerm;22259;48.792;8.964;2023-05-08T05:55:09;44.15;40.31;56.48;;
36217;Laerm;22259;48.792;8.964;2023-05-08T05:57:35;46.68;39.78;61.95;;
36217;Laerm;22259;48.792;8.964;2023-05-08T06:00:00;53.87;40.62;74.36;;
36217;Laerm;22259;48.792;8.964;2023-05-08T06:02:26;58.26;40.50;75.15;;
36217;Laerm;22259;48.792;8.964;2023-05-08T06:04:51;43.04;40.69;58.09;;
36217;Laerm;22259;48.792;8.964;2023-05-08T06:07:17;48.59;40.26;64.98;;
36217;Laerm;22259;48.792;8.964;2023-05-08T06:09:42;43.00;39.73;56.42;;
36217;Laerm;22259;48.792;8.964;2023-05-08T06:12:07;46.82;40.31;62.68;;
36217;Laerm;22259;48.792;8.964;2023-05-08T06:14:33;53.08;40.11;67.70;;
36217;Laerm;22259;48.792;8.964;2023-05-08T06:16:58;51.05;40.55;66.55;;
36217;Laerm;22259;48.792;8.964;2023-05-08T06:19:24;43.21;40.76;56.27;;
36217;Laerm;22259;48.792;8.964;2023-05-08T06:21:50;45.68;40.97;62.08;;
36217;Laerm;22259;48.792;8.964;2023-05-08T06:24:15;43.01;39.84;52.42;;
36217;Laerm;22259;48.792;8.964;2023-05-08T06:26:40;43.76;40.05;62.97;;
36217;Laerm;22259;48.792;8.964;2023-05-08T06:29:06;43.30;40.55;51.21;;
36217;Laerm;22259;48.792;8.964;2023-05-08T06:31:31;54.65;40.50;69.18;;
36217;Laerm;22259;48.792;8.964;2023-05-08T06:33:57;44.30;40.91;57.87;;
36217;Laerm;22259;48.792;8.964;2023-05-08T06:36:22;48.83;41.08;65.02;;
36217;Laerm;22259;48.792;8.964;2023-05-08T06:38:47;44.13;42.03;49.31;;
36217;Laerm;22259;48.792;8.964;2023-05-08T06:41:13;51.37;43.01;65.51;;
36217;Laerm;22259;48.792;8.964;2023-05-08T06:43:38;50.41;45.95;55.45;;
36217;Laerm;22259;48.792;8.964;2023-05-08T06:46:04;58.07;49.12;70.34;;
36217;Laerm;22259;48.792;8.964;2023-05-08T06:48:29;60.26;54.40;71.11;;
36217;Laerm;22259;48.792;8.964;2023-05-08T06:50:54;55.95;49.01;63.95;;
36217;Laerm;22259;48.792;8.964;2023-05-08T06:53:20;47.69;39.18;58.86;;
36217;Laerm;22259;48.792;8.964;2023-05-08T06:55:46;42.28;38.92;55.21;;
36217;Laerm;22259;48.792;8.964;2023-05-08T06:58:11;41.89;39.37;51.23;;
36217;Laerm;22259;48.792;8.964;2023-05-08T07:00:36;53.07;39.61;71.31;;
36217;Laerm;22259;48.792;8.964;2023-05-08T07:03:02;53.17;39.73;65.78;;
36217;Laerm;22259;48.792;8.964;2023-05-08T07:05:27;53.66;44.64;70.20;;
36217;Laerm;22259;48.792;8.964;2023-05-08T07:07:53;54.83;45.76;62.27;;
36217;Laerm;22259;48.792;8.964;2023-05-08T07:10:22;58.46;51.70;65.48;;
36217;Laerm;22259;48.792;8.964;2023-05-08T07:12:47;60.10;45.87;73.42;;
36217;Laerm;22259;48.792;8.964;2023-05-08T07:15:13;62.08;45.62;71.98;;
36217;Laerm;22259;48.792;8.964;2023-05-08T07:17:38;59.37;43.50;70.86;;
36217;Laerm;22259;48.792;8.964;2023-05-08T07:20:04;56.17;45.38;65.14;;
36217;Laerm;22259;48.792;8.964;2023-05-08T07:22:29;57.42;47.79;64.38;;
36217;Laerm;22259;48.792;8.964;2023-05-08T07:24:55;53.77;44.16;60.72;;
36217;Laerm;22259;48.792;8.964;2023-05-08T07:27:20;51.14;46.62;56.96;;
36217;Laerm;22259;48.792;8.964;2023-05-08T07:29:46;50.79;45.82;65.98;;
36217;Laerm;22259;48.792;8.964;2023-05-08T07:32:11;53.68;43.77;68.32;;
36217;Laerm;22259;48.792;8.964;2023-05-08T07:34:36;52.76;42.16;67.07;;
36217;Laerm;22259;48.792;8.964;2023-05-08T07:37:02;51.79;41.32;63.72;;
36217;Laerm;22259;48.792;8.964;2023-05-08T07:39:28;46.05;40.41;61.28;;
36217;Laerm;22259;48.792;8.964;2023-05-08T07:41:53;43.82;40.28;57.56;;
36217;Laerm;22259;48.792;8.964;2023-05-08T07:44:18;43.80;41.02;57.11;;
36217;Laerm;22259;48.792;8.964;2023-05-08T07:46:44;52.38;41.34;69.09;;
36217;Laerm;22259;48.792;8.964;2023-05-08T07:49:09;45.76;40.91;59.35;;
36217;Laerm;22259;48.792;8.964;2023-05-08T07:51:35;51.59;42.08;67.53;;
36217;Laerm;22259;48.792;8.964;2023-05-08T07:54:00;48.49;42.58;60.21;;
36217;Laerm;22259;48.792;8.964;2023-05-08T07:56:26;49.12;44.07;66.33;;
36217;Laerm;22259;48.792;8.964;2023-05-08T07:58:52;49.49;44.69;67.62;;
36217;Laerm;22259;48.792;8.964;2023-05-08T08:01:17;54.07;45.31;70.90;;
36217;Laerm;22259;48.792;8.964;2023-05-08T08:03:43;52.10;45.48;65.29;;
36217;Laerm;22259;48.792;8.964;2023-05-08T08:06:09;50.79;45.11;61.37;;
36217;Laerm;22259;48.792;8.964;2023-05-08T08:08:34;51.11;42.66;56.82;;
36217;Laerm;22259;48.792;8.964;2023-05-08T08:11:00;47.00;40.43;61.34;;
36217;Laerm;22259;48.792;8.964;2023-05-08T08:13:25;52.59;45.89;61.35;;
36217;Laerm;22259;48.792;8.964;2023-05-08T08:15:50;57.64;46.18;67.72;;
36217;Laerm;22259;48.792;8.964;2023-05-08T08:18:16;58.43;47.23;66.74;;
36217;Laerm;22259;48.792;8.964;2023-05-08T08:20:41;62.39;46.94;75.31;;
36217;Laerm;22259;48.792;8.964;2023-05-08T08:23:07;65.47;55.47;72.44;;
36217;Laerm;22259;48.792;8.964;2023-05-08T08:25:32;65.22;44.15;77.09;;
36217;Laerm;22259;48.792;8.964;2023-05-08T08:27:57;62.35;50.05;77.11;;
36217;Laerm;22259;48.792;8.964;2023-05-08T08:30:23;58.56;45.87;80.43;;
36217;Laerm;22259;48.792;8.964;2023-05-08T08:32:48;57.92;42.66;81.39;;
36217;Laerm;22259;48.792;8.964;2023-05-08T08:35:14;51.13;44.49;71.18;;
36217;Laerm;22259;48.792;8.964;2023-05-08T08:37:39;60.22;45.65;73.55;;
36217;Laerm;22259;48.792;8.964;2023-05-08T08:40:05;56.82;45.99;72.95;;
36217;Laerm;22259;48.792;8.964;2023-05-08T08:42:31;48.86;44.66;67.08;;
36217;Laerm;22259;48.792;8.964;2023-05-08T08:44:56;54.45;43.34;73.82;;
36217;Laerm;22259;48.792;8.964;2023-05-08T08:47:22;47.05;43.57;72.42;;
36217;Laerm;22259;48.792;8.964;2023-05-08T08:49:51;52.02;43.13;72.80;;
36217;Laerm;22259;48.792;8.964;2023-05-08T08:52:31;47.27;41.44;72.94;;
36217;Laerm;22259;48.792;8.964;2023-05-08T08:54:59;50.11;40.21;79.68;;
36217;Laerm;22259;48.792;8.964;2023-05-08T08:57:26;48.24;40.64;77.40;;
36217;Laerm;22259;48.792;8.964;2023-05-08T08:59:52;51.31;40.62;79.26;;
36217;Laerm;22259;48.792;8.964;2023-05-08T09:02:19;56.12;40.13;75.41;;
36217;Laerm;22259;48.792;8.964;2023-05-08T09:04:47;53.90;42.09;77.11;;
36217;Laerm;22259;48.792;8.964;2023-05-08T09:07:13;54.57;42.93;73.92;;
36217;Laerm;22259;48.792;8.964;2023-05-08T09:09:39;50.70;41.68;78.83;;
36217;Laerm;22259;48.792;8.964;2023-05-08T09:12:08;46.74;41.72;67.27;;
36217;Laerm;22259;48.792;8.964;2023-05-08T09:14:33;49.14;41.79;72.02;;
36217;Laerm;22259;48.792;8.964;2023-05-08T09:16:59;55.86;41.10;77.61;;
36217;Laerm;22259;48.792;8.964;2023-05-08T09:19:25;50.81;41.14;78.81;;
36217;Laerm;22259;48.792;8.964;2023-05-08T09:21:50;45.65;41.46;62.03;;
36217;Laerm;22259;48.792;8.964;2023-05-08T09:24:16;45.75;41.30;67.30;;
36217;Laerm;22259;48.792;8.964;2023-05-08T09:26:41;45.00;41.40;67.96;;
36217;Laerm;22259;48.792;8.964;2023-05-08T09:29:08;44.96;41.44;66.79;;
36217;Laerm;22259;48.792;8.964;2023-05-08T09:31:34;54.03;41.10;71.40;;
36217;Laerm;22259;48.792;8.964;2023-05-08T09:33:59;49.10;39.95;62.63;;
36217;Laerm;22259;48.792;8.964;2023-05-08T09:36:25;53.99;40.69;74.29;;
36217;Laerm;22259;48.792;8.964;2023-05-08T09:38:56;44.68;40.48;66.33;;
36217;Laerm;22259;48.792;8.964;2023-05-08T09:41:21;43.12;39.87;50.25;;
36217;Laerm;22259;48.792;8.964;2023-05-08T09:44:01;46.30;40.71;73.31;;
36217;Laerm;22259;48.792;8.964;2023-05-08T09:46:26;53.76;40.95;67.55;;
36217;Laerm;22259;48.792;8.964;2023-05-08T09:48:52;48.27;41.24;65.05;;
36217;Laerm;22259;48.792;8.964;2023-05-08T09:51:18;45.98;40.97;60.24;;
36217;Laerm;22259;48.792;8.964;2023-05-08T09:53:44;44.79;41.34;53.76;;
36217;Laerm;22259;48.792;8.964;2023-05-08T09:56:09;45.87;41.04;63.12;;
36217;Laerm;22259;48.792;8.964;2023-05-08T09:58:38;45.68;41.06;61.52;;
36217;Laerm;22259;48.792;8.964;2023-05-08T10:01:04;53.91;41.16;71.29;;
36217;Laerm;22259;48.792;8.964;2023-05-08T10:03:47;48.60;40.73;65.11;;
36217;Laerm;22259;48.792;8.964;2023-05-08T10:06:14;46.89;40.69;72.64;;
36217;Laerm;22259;48.792;8.964;2023-05-08T10:08:39;44.43;40.67;58.65;;
36217;Laerm;22259;48.792;8.964;2023-05-08T10:11:18;54.17;40.76;70.74;;
36217;Laerm;22259;48.792;8.964;2023-05-08T10:13:43;44.61;40.57;64.24;;
36217;Laerm;22259;48.792;8.964;2023-05-08T10:16:18;54.40;40.46;68.77;;
36217;Laerm;22259;48.792;8.964;2023-05-08T10:18:46;46.33;39.84;70.11;;
36217;Laerm;22259;48.792;8.964;2023-05-08T10:21:15;47.91;39.89;65.24;;
36217;Laerm;22259;48.792;8.964;2023-05-08T10:23:41;45.22;39.87;60.19;;
36217;Laerm;22259;48.792;8.964;2023-05-08T10:26:14;44.13;39.70;56.60;;
36217;Laerm;22259;48.792;8.964;2023-05-08T10:28:47;43.80;40.41;56.04;;
36217;Laerm;22259;48.792;8.964;2023-05-08T10:31:14;54.39;39.70;69.43;;
36217;Laerm;22259;48.792;8.964;2023-05-08T10:33:41;42.84;39.64;54.17;;
36217;Laerm;22259;48.792;8.964;2023-05-08T10:36:08;41.75;38.85;53.11;;
36217;Laerm;22259;48.792;8.964;2023-05-08T10:38:35;42.57;39.41;54.50;;
36217;Laerm;22259;48.792;8.964;2023-05-08T10:41:00;42.66;40.03;52.84;;
36217;Laerm;22259;48.792;8.964;2023-05-08T10:43:27;42.59;39.46;52.65;;
36217;Laerm;22259;48.792;8.964;2023-05-08T10:45:53;52.77;39.95;69.31;;
36217;Laerm;22259;48.792;8.964;2023-05-08T10:48:25;50.96;40.08;67.14;;
36217;Laerm;22259;48.792;8.964;2023-05-08T10:53:41;42.68;39.89;54.09;;
36217;Laerm;22259;48.792;8.964;2023-05-08T10:56:08;43.37;39.78;54.98;;
36217;Laerm;22259;48.792;8.964;2023-05-08T10:58:36;43.56;40.41;52.72;;
36217;Laerm;22259;48.792;8.964;2023-05-08T11:01:11;54.06;39.92;67.56;;
36217;Laerm;22259;48.792;8.964;2023-05-08T11:03:38;47.27;40.18;66.93;;
36217;Laerm;22259;48.792;8.964;2023-05-08T11:06:04;43.74;40.13;65.13;;
36217;Laerm;22259;48.792;8.964;2023-05-08T11:08:30;43.19;40.43;57.34;;
36217;Laerm;22259;48.792;8.964;2023-05-08T11:14:09;49.31;40.55;67.53;;
36217;Laerm;22259;48.792;8.964;2023-05-08T11:26:02;48.23;40.82;68.24;;
36217;Laerm;22259;48.792;8.964;2023-05-08T11:32:54;52.85;40.73;67.97;;
36217;Laerm;22259;48.792;8.964;2023-05-08T11:35:37;43.94;40.55;61.13;;
36217;Laerm;22259;48.792;8.964;2023-05-08T11:43:18;44.32;40.38;65.64;;
36217;Laerm;22259;48.792;8.964;2023-05-08T11:45:43;51.98;41.06;67.56;;
36217;Laerm;22259;48.792;8.964;2023-05-08T11:48:11;51.81;41.63;67.97;;
36217;Laerm;22259;48.792;8.964;2023-05-08T11:50:38;43.77;40.71;61.01;;
36217;Laerm;22259;48.792;8.964;2023-05-08T11:53:03;49.64;41.40;69.27;;
36217;Laerm;22259;48.792;8.964;2023-05-08T11:55:29;44.01;41.04;58.82;;
36217;Laerm;22259;48.792;8.964;2023-05-08T11:57:55;44.46;41.44;66.01;;
36217;Laerm;22259;48.792;8.964;2023-05-08T12:00:20;52.10;41.63;67.13;;
36217;Laerm;22259;48.792;8.964;2023-05-08T12:02:46;49.87;41.93;64.91;;
36217;Laerm;22259;48.792;8.964;2023-05-08T12:05:11;46.49;41.44;66.66;;
36217;Laerm;22259;48.792;8.964;2023-05-08T12:07:43;52.16;41.16;68.89;;
36217;Laerm;22259;48.792;8.964;2023-05-08T12:10:09;47.91;42.26;70.03;;
36217;Laerm;22259;48.792;8.964;2023-05-08T12:12:35;45.65;41.82;65.64;;
36217;Laerm;22259;48.792;8.964;2023-05-08T12:15:00;56.21;43.12;71.05;;
36217;Laerm;22259;48.792;8.964;2023-05-08T12:17:25;58.04;52.85;70.06;;
36217;Laerm;22259;48.792;8.964;2023-05-08T12:19:53;56.90;53.07;70.16;;
36217;Laerm;22259;48.792;8.964;2023-05-08T12:22:18;59.36;53.77;72.06;;
36217;Laerm;22259;48.792;8.964;2023-05-08T12:24:45;59.01;54.24;64.87;;
36217;Laerm;22259;48.792;8.964;2023-05-08T12:27:11;54.37;49.31;68.60;;
36217;Laerm;22259;48.792;8.964;2023-05-08T12:29:37;55.17;48.31;70.45;;
36217;Laerm;22259;48.792;8.964;2023-05-08T12:32:02;53.82;46.90;67.55;;
36217;Laerm;22259;48.792;8.964;2023-05-08T12:34:27;51.87;47.67;64.73;;
36217;Laerm;22259;48.792;8.964;2023-05-08T12:37:03;55.58;50.26;78.96;;
36217;Laerm;22259;48.792;8.964;2023-05-08T12:39:33;54.25;49.37;70.20;;
36217;Laerm;22259;48.792;8.964;2023-05-08T12:41:58;52.69;49.65;62.27;;
36217;Laerm;22259;48.792;8.964;2023-05-08T12:44:24;52.15;48.04;69.12;;
36217;Laerm;22259;48.792;8.964;2023-05-08T12:46:51;57.47;50.83;69.12;;
36217;Laerm;22259;48.792;8.964;2023-05-08T12:49:26;52.06;48.45;64.58;;
36217;Laerm;22259;48.792;8.964;2023-05-08T12:52:01;55.58;48.71;67.93;;
36217;Laerm;22259;48.792;8.964;2023-05-08T12:54:36;54.19;51.23;67.27;;
36217;Laerm;22259;48.792;8.964;2023-05-08T12:57:07;53.93;50.20;68.95;;
36217;Laerm;22259;48.792;8.964;2023-05-08T12:59:32;56.78;49.78;70.07;;
36217;Laerm;22259;48.792;8.964;2023-05-08T13:01:58;53.80;49.49;66.59;;
36217;Laerm;22259;48.792;8.964;2023-05-08T13:04:23;54.98;48.03;71.92;;
36217;Laerm;22259;48.792;8.964;2023-05-08T13:06:53;51.86;46.22;70.07;;
36217;Laerm;22259;48.792;8.964;2023-05-08T13:09:18;50.87;44.66;67.39;;
36217;Laerm;22259;48.792;8.964;2023-05-08T13:11:44;49.35;44.02;65.75;;
36217;Laerm;22259;48.792;8.964;2023-05-08T13:14:09;52.14;43.47;71.48;;
36217;Laerm;22259;48.792;8.964;2023-05-08T13:16:44;55.50;42.82;69.92;;
36217;Laerm;22259;48.792;8.964;2023-05-08T13:19:10;51.32;42.74;67.40;;
36217;Laerm;22259;48.792;8.964;2023-05-08T13:21:35;50.98;42.52;69.02;;
36217;Laerm;22259;48.792;8.964;2023-05-08T13:24:01;55.38;41.44;72.10;;
36217;Laerm;22259;48.792;8.964;2023-05-08T13:26:26;49.98;41.86;63.28;;
36217;Laerm;22259;48.792;8.964;2023-05-08T13:28:51;54.47;41.86;78.74;;
36217;Laerm;22259;48.792;8.964;2023-05-08T13:31:17;54.65;41.08;69.75;;
36217;Laerm;22259;48.792;8.964;2023-05-08T13:33:42;53.84;42.27;68.40;;
36217;Laerm;22259;48.792;8.964;2023-05-08T13:36:07;50.89;41.50;69.40;;
36217;Laerm;22259;48.792;8.964;2023-05-08T13:38:33;48.11;41.68;74.57;;
36217;Laerm;22259;48.792;8.964;2023-05-08T13:40:58;60.24;42.50;77.26;;
36217;Laerm;22259;48.792;8.964;2023-05-08T13:43:24;46.79;41.70;70.37;;
36217;Laerm;22259;48.792;8.964;2023-05-08T13:45:49;48.39;42.06;71.33;;
36217;Laerm;22259;48.792;8.964;2023-05-08T13:48:15;54.31;41.91;72.37;;
36217;Laerm;22259;48.792;8.964;2023-05-08T13:50:40;50.27;42.08;62.25;;
36217;Laerm;22259;48.792;8.964;2023-05-08T13:53:06;56.07;41.68;73.71;;
36217;Laerm;22259;48.792;8.964;2023-05-08T13:55:31;45.74;41.96;64.61;;
36217;Laerm;22259;48.792;8.964;2023-05-08T13:57:56;45.97;41.61;62.37;;
36217;Laerm;22259;48.792;8.964;2023-05-08T14:00:22;44.75;41.89;62.11;;
36217;Laerm;22259;48.792;8.964;2023-05-08T14:02:48;45.29;41.99;60.81;;
36217;Laerm;22259;48.792;8.964;2023-05-08T14:05:13;54.95;41.73;77.58;;
36217;Laerm;22259;48.792;8.964;2023-05-08T14:07:39;54.34;41.86;69.24;;
36217;Laerm;22259;48.792;8.964;2023-05-08T14:10:04;48.23;42.08;63.10;;
36217;Laerm;22259;48.792;8.964;2023-05-08T14:12:30;45.88;41.24;63.09;;
36217;Laerm;22259;48.792;8.964;2023-05-08T14:15:00;54.53;42.29;69.07;;
36217;Laerm;22259;48.792;8.964;2023-05-08T14:17:25;45.81;42.21;59.60;;
36217;Laerm;22259;48.792;8.964;2023-05-08T14:19:50;56.54;42.13;71.50;;
36217;Laerm;22259;48.792;8.964;2023-05-08T14:22:16;48.88;42.04;66.16;;
36217;Laerm;22259;48.792;8.964;2023-05-08T14:24:41;46.64;41.75;58.78;;